Andalusia, Pennsylvania
Current Conditions -  °F | °C
As of 3:54 PM on Friday 19 Dec 2014 (Local Time) from KPNE Reporting Station
Clear Clear  
Wind Chill: 33°   Ceiling: Unl
Heat Index: 41°   Visibility: 10mi
Dew Point: 20°   Wind: 14mph
Humidity: 43%   Direction: 340°NNW
Pressure: 30.1"   Gusts: NA
Location:  40.1068°N, 74.9379°W
Report Text: KPNE 192054Z AUTO 34012KT 10SM CLR 05/M07 A3010 RMK AO2 SLP192 T00501067 53004 TSNO $
Loading
Personal Weather Stations






























Interactive Weather Map New forecast layout! Learn more

10-Day Weather Forecast

Advertisements
Track Severe Weather on mobile